createdAt,value
2018-09-11T00:00:42.602Z,99.90
2018-09-11T00:03:14.547Z,99.90
2018-09-11T00:05:45.836Z,99.90
2018-09-11T00:08:17.472Z,99.90
2018-09-11T00:10:48.967Z,99.90
2018-09-11T00:13:21.198Z,99.90
2018-09-11T00:15:52.522Z,99.90
2018-09-11T00:18:24.436Z,99.90
2018-09-11T00:20:55.660Z,99.90
2018-09-11T00:23:27.215Z,99.90
2018-09-11T00:25:58.895Z,99.90
2018-09-11T00:28:31.242Z,99.90
2018-09-11T00:31:02.575Z,99.90
2018-09-11T00:33:34.147Z,99.90
2018-09-11T00:36:05.220Z,99.90
2018-09-11T00:38:37.840Z,99.90
2018-09-11T00:41:09.317Z,99.90
2018-09-11T00:43:41.112Z,99.90
2018-09-11T00:46:12.599Z,99.90
2018-09-11T00:48:44.551Z,99.90
2018-09-11T00:51:15.670Z,99.90
2018-09-11T00:53:47.420Z,99.90
2018-09-11T00:56:18.780Z,99.90
2018-09-11T00:58:50.481Z,99.90
2018-09-11T01:01:21.636Z,99.90
2018-09-11T01:03:53.309Z,99.90
2018-09-11T01:06:24.886Z,99.90
2018-09-11T01:08:56.627Z,99.90
2018-09-11T01:11:28.026Z,99.90
2018-09-11T01:13:59.600Z,99.90
2018-09-11T01:16:31.054Z,99.90
2018-09-11T01:19:03.258Z,99.90
2018-09-11T01:21:34.622Z,99.90
2018-09-11T01:24:06.196Z,99.90
2018-09-11T01:26:37.509Z,99.90
2018-09-11T01:29:09.402Z,99.90
2018-09-11T01:31:40.972Z,99.90
2018-09-11T01:34:12.449Z,99.90
2018-09-11T01:36:44.042Z,99.90
2018-09-11T01:39:16.889Z,99.90
2018-09-11T01:41:48.416Z,99.90
2018-09-11T01:44:20.037Z,99.90
2018-09-11T01:46:51.422Z,99.90
2018-09-11T01:49:23.565Z,99.90
2018-09-11T01:51:54.929Z,99.90
2018-09-11T01:54:26.848Z,99.90
2018-09-11T01:56:58.237Z,99.90
2018-09-11T01:59:30.690Z,99.90
2018-09-11T02:02:02.300Z,99.90
2018-09-11T02:04:33.965Z,99.90
2018-09-11T02:07:05.532Z,99.90
2018-09-11T02:09:37.271Z,99.90
2018-09-11T02:12:08.620Z,99.90
2018-09-11T02:14:40.616Z,99.90
2018-09-11T02:17:12.444Z,99.90
2018-09-11T02:19:44.206Z,99.90
2018-09-11T02:22:15.761Z,99.90
2018-09-11T02:24:47.601Z,99.90
2018-09-11T02:27:19.612Z,99.90
2018-09-11T02:29:51.156Z,99.90
2018-09-11T02:32:22.840Z,99.90
2018-09-11T02:34:54.724Z,99.90
2018-09-11T02:37:26.325Z,99.90
2018-09-11T02:39:58.528Z,99.90
2018-09-11T02:42:30.197Z,99.90
2018-09-11T02:45:02.577Z,99.90
2018-09-11T02:47:33.873Z,99.90
2018-09-11T02:50:06.849Z,99.90
2018-09-11T02:52:39.327Z,99.90
2018-09-11T02:55:13.215Z,99.90
2018-09-11T02:57:44.538Z,99.90
2018-09-11T03:00:17.289Z,99.90
2018-09-11T03:02:48.912Z,99.90
2018-09-11T03:05:20.860Z,99.90
2018-09-11T03:07:52.393Z,99.90
2018-09-11T03:10:24.008Z,99.90
2018-09-11T03:12:55.325Z,99.90
2018-09-11T03:15:27.050Z,99.90
2018-09-11T03:17:58.337Z,99.90
2018-09-11T03:20:29.930Z,99.90
2018-09-11T03:23:03.382Z,99.90
2018-09-11T03:25:34.905Z,99.90
2018-09-11T03:28:06.557Z,99.90
2018-09-11T03:30:38.184Z,99.90
2018-09-11T03:33:09.726Z,99.90
2018-09-11T03:35:41.579Z,99.90
2018-09-11T03:38:12.795Z,99.90
2018-09-11T03:40:45.889Z,99.90
2018-09-11T03:43:17.362Z,99.90
2018-09-11T03:45:49.629Z,99.90
2018-09-11T03:48:21.962Z,99.90
2018-09-11T03:50:53.493Z,99.90
2018-09-11T03:53:24.950Z,99.90
2018-09-11T03:55:56.557Z,99.90
2018-09-11T03:58:27.917Z,99.90
2018-09-11T04:00:59.673Z,99.90
2018-09-11T04:03:31.107Z,99.90
2018-09-11T04:06:02.758Z,99.90
2018-09-11T04:08:33.839Z,99.90
2018-09-11T04:11:05.897Z,99.90
2018-09-11T04:13:36.941Z,99.90
2018-09-11T04:16:08.389Z,99.90
2018-09-11T04:18:39.688Z,99.90
2018-09-11T04:21:11.280Z,99.90
2018-09-11T04:23:42.453Z,99.90
2018-09-11T04:26:14.129Z,99.90
2018-09-11T04:28:45.437Z,99.90
2018-09-11T04:31:17.105Z,99.90
2018-09-11T04:33:48.318Z,99.90
2018-09-11T04:36:20.153Z,99.90
2018-09-11T04:38:51.942Z,99.90
2018-09-11T04:41:24.009Z,99.90
2018-09-11T04:43:55.424Z,99.90
2018-09-11T04:46:27.142Z,99.90
2018-09-11T04:48:59.060Z,99.90
2018-09-11T04:51:31.005Z,99.90
2018-09-11T04:54:02.985Z,99.90
2018-09-11T04:56:34.491Z,99.90
2018-09-11T04:59:05.626Z,99.60
2018-09-11T05:01:36.853Z,98.30
2018-09-11T05:04:08.221Z,98.00
2018-09-11T05:06:39.694Z,97.70
2018-09-11T05:09:12.195Z,98.10
2018-09-11T05:11:43.649Z,98.90
2018-09-11T05:14:15.131Z,99.90
2018-09-11T05:16:47.678Z,99.90
2018-09-11T05:19:19.106Z,99.90
2018-09-11T05:21:51.004Z,99.90
2018-09-11T05:24:22.256Z,99.90
2018-09-11T05:26:54.118Z,99.90
2018-09-11T05:29:26.213Z,99.70
2018-09-11T05:31:57.945Z,98.20
2018-09-11T05:34:29.109Z,97.10
2018-09-11T05:37:00.489Z,95.90
2018-09-11T05:39:31.762Z,94.40
2018-09-11T05:42:03.417Z,94.00
2018-09-11T05:44:34.489Z,94.60
2018-09-11T05:47:06.547Z,95.90
2018-09-11T05:49:37.696Z,96.30
2018-09-11T05:52:09.425Z,97.00
2018-09-11T05:54:41.134Z,97.50
2018-09-11T05:57:13.028Z,98.00
2018-09-11T05:59:44.453Z,98.30
2018-09-11T06:02:16.103Z,98.60
2018-09-11T06:04:47.466Z,98.30
2018-09-11T06:07:19.397Z,98.50
2018-09-11T06:09:50.964Z,98.50
2018-09-11T06:12:22.527Z,98.60
2018-09-11T06:14:53.492Z,98.90
2018-09-11T06:17:24.913Z,98.70
2018-09-11T06:19:56.045Z,98.60
2018-09-11T06:22:27.424Z,97.10
2018-09-11T06:24:58.359Z,95.50
2018-09-11T06:27:29.576Z,94.00
2018-09-11T06:30:00.616Z,93.80
2018-09-11T06:32:32.364Z,92.70
2018-09-11T06:35:03.787Z,92.10
2018-09-11T06:37:35.040Z,92.00
2018-09-11T06:40:07.262Z,92.70
2018-09-11T06:42:40.061Z,93.20
2018-09-11T06:45:11.133Z,93.80
2018-09-11T06:47:42.295Z,94.10
2018-09-11T06:50:13.360Z,94.30
2018-09-11T06:52:46.244Z,94.70
2018-09-11T06:55:17.318Z,95.20
2018-09-11T06:57:48.625Z,95.40
2018-09-11T07:00:19.814Z,96.00
2018-09-11T07:02:51.449Z,95.70
2018-09-11T07:05:22.673Z,95.90
2018-09-11T07:07:54.048Z,96.00
2018-09-11T07:10:25.029Z,96.00
2018-09-11T07:12:56.494Z,95.70
2018-09-11T07:15:27.633Z,95.50
2018-09-11T07:17:59.101Z,95.40
2018-09-11T07:20:30.585Z,95.50
2018-09-11T07:23:02.396Z,95.40
2018-09-11T07:25:33.593Z,95.80
2018-09-11T07:28:05.714Z,96.20
2018-09-11T07:30:36.619Z,96.00
2018-09-11T07:33:08.285Z,95.70
2018-09-11T07:35:39.622Z,95.20
2018-09-11T07:38:11.109Z,95.10
2018-09-11T07:40:42.577Z,95.30
2018-09-11T07:43:15.098Z,94.40
2018-09-11T07:45:46.640Z,94.40
2018-09-11T07:48:18.256Z,94.70
2018-09-11T07:50:49.516Z,94.90
2018-09-11T07:53:21.404Z,94.50
2018-09-11T07:55:52.674Z,94.50
2018-09-11T07:58:24.853Z,93.80
2018-09-11T08:00:56.192Z,93.60
2018-09-11T08:03:27.884Z,93.70
2018-09-11T08:05:59.619Z,93.70
2018-09-11T08:08:31.991Z,92.90
2018-09-11T08:11:03.849Z,92.70
2018-09-11T08:13:35.556Z,91.70
2018-09-11T08:16:07.025Z,90.80
2018-09-11T08:18:38.657Z,88.40
2018-09-11T08:21:10.157Z,85.70
2018-09-11T08:23:41.833Z,84.00
2018-09-11T08:26:13.497Z,83.80
2018-09-11T08:28:45.184Z,85.20
2018-09-11T08:31:16.317Z,87.20
2018-09-11T08:33:48.386Z,89.20
2018-09-11T08:36:20.004Z,90.80
2018-09-11T08:38:51.460Z,91.00
2018-09-11T08:41:22.921Z,91.20
2018-09-11T08:43:55.539Z,91.20
2018-09-11T08:46:26.932Z,91.50
2018-09-11T08:48:58.680Z,91.40
2018-09-11T08:51:30.637Z,91.30
2018-09-11T08:54:02.721Z,91.50
2018-09-11T08:56:34.296Z,91.40
2018-09-11T08:59:06.030Z,91.20
2018-09-11T09:01:37.280Z,91.30
2018-09-11T09:04:08.885Z,91.50
2018-09-11T09:06:40.189Z,91.40
2018-09-11T09:09:12.958Z,91.70
2018-09-11T09:11:44.261Z,90.60
2018-09-11T09:14:16.175Z,90.40
2018-09-11T09:16:47.608Z,91.60
2018-09-11T09:19:19.109Z,92.00
2018-09-11T09:21:51.349Z,92.00
2018-09-11T09:24:22.702Z,92.20
2018-09-11T09:26:53.897Z,92.10
2018-09-11T09:29:25.664Z,92.90
2018-09-11T09:31:56.564Z,93.00
2018-09-11T09:34:27.962Z,92.30
2018-09-11T09:36:59.388Z,92.50
2018-09-11T09:39:30.782Z,92.80
2018-09-11T09:42:02.360Z,94.00
2018-09-11T09:44:34.463Z,93.60
2018-09-11T09:47:05.430Z,94.40
2018-09-11T09:49:36.879Z,94.90
2018-09-11T09:52:07.994Z,95.10
2018-09-11T09:54:39.933Z,95.70
2018-09-11T09:57:11.270Z,95.50
2018-09-11T09:59:42.893Z,94.80
2018-09-11T10:02:18.911Z,95.70
2018-09-11T10:04:50.212Z,95.70
2018-09-11T10:07:22.003Z,95.90
2018-09-11T10:09:54.089Z,95.30
2018-09-11T10:12:25.109Z,94.50
2018-09-11T10:14:56.445Z,94.60
2018-09-11T10:17:27.739Z,95.20
2018-09-11T10:19:59.046Z,95.90
2018-09-11T10:22:30.306Z,96.90
2018-09-11T10:25:02.873Z,97.00
2018-09-11T10:27:33.926Z,96.90
2018-09-11T10:30:06.623Z,97.60
2018-09-11T10:32:37.664Z,97.90
2018-09-11T10:35:09.486Z,98.10
2018-09-11T10:37:40.573Z,97.80
2018-09-11T10:40:11.769Z,97.40
2018-09-11T10:42:43.050Z,96.20
2018-09-11T10:45:14.913Z,96.60
2018-09-11T10:47:46.261Z,97.20
2018-09-11T10:50:17.378Z,97.10
2018-09-11T10:52:48.360Z,97.10
2018-09-11T10:55:19.676Z,96.50
2018-09-11T10:57:50.803Z,97.10
2018-09-11T11:00:22.252Z,97.10
2018-09-11T11:02:53.774Z,97.70
2018-09-11T11:05:25.627Z,98.30
2018-09-11T11:07:56.850Z,97.90
2018-09-11T11:10:28.542Z,97.90
2018-09-11T11:12:59.573Z,99.20
2018-09-11T11:15:30.953Z,99.10
2018-09-11T11:18:02.729Z,98.60
2018-09-11T11:20:34.306Z,97.90
2018-09-11T11:23:05.590Z,99.70
2018-09-11T11:25:37.530Z,99.30
2018-09-11T11:28:08.698Z,99.20
2018-09-11T11:30:40.422Z,99.90
2018-09-11T11:33:11.895Z,99.10
2018-09-11T11:35:43.702Z,99.40
2018-09-11T11:38:15.094Z,98.90
2018-09-11T11:40:47.021Z,98.00
2018-09-11T11:43:18.505Z,98.30
2018-09-11T11:45:53.446Z,97.40
2018-09-11T11:48:24.554Z,96.80
2018-09-11T11:50:57.091Z,97.30
2018-09-11T11:53:28.373Z,98.30
2018-09-11T11:56:00.429Z,99.90
2018-09-11T11:58:31.519Z,99.90
2018-09-11T12:01:03.921Z,99.90
2018-09-11T12:03:35.249Z,99.90
2018-09-11T12:06:07.408Z,99.90
2018-09-11T12:08:38.529Z,99.90
2018-09-11T12:11:10.102Z,99.90
2018-09-11T12:13:41.077Z,99.90
2018-09-11T12:16:12.416Z,99.90
2018-09-11T12:18:43.730Z,99.90
2018-09-11T12:21:15.346Z,99.90
2018-09-11T12:23:46.370Z,99.90
2018-09-11T12:26:18.012Z,99.90
2018-09-11T12:28:49.690Z,99.90
2018-09-11T12:31:21.839Z,99.90
2018-09-11T12:33:53.186Z,99.90
2018-09-11T12:36:24.898Z,99.90
2018-09-11T12:38:56.643Z,99.90
2018-09-11T12:41:27.990Z,99.90
2018-09-11T12:43:59.051Z,99.90
2018-09-11T12:46:30.972Z,99.90
2018-09-11T12:49:02.290Z,99.90
2018-09-11T12:51:33.509Z,99.90
2018-09-11T12:54:06.181Z,99.90
2018-09-11T12:56:37.422Z,99.90
2018-09-11T12:59:08.657Z,99.90
2018-09-11T13:01:40.070Z,99.90
2018-09-11T13:04:11.242Z,99.90
2018-09-11T13:06:44.227Z,99.90
2018-09-11T13:09:15.521Z,99.90
2018-09-11T13:11:46.922Z,99.90
2018-09-11T13:14:18.077Z,99.90
2018-09-11T13:16:49.426Z,99.90
2018-09-11T13:19:20.545Z,99.90
2018-09-11T13:21:53.699Z,99.90
2018-09-11T13:24:24.802Z,99.90
2018-09-11T13:26:55.729Z,99.90
2018-09-11T13:29:26.589Z,99.90
2018-09-11T13:31:57.861Z,99.90
2018-09-11T13:34:28.957Z,99.90
2018-09-11T13:37:00.719Z,99.90
2018-09-11T13:39:31.757Z,99.90
2018-09-11T13:42:04.078Z,99.90
2018-09-11T13:44:35.250Z,99.90
2018-09-11T13:47:09.950Z,99.90
2018-09-11T13:49:41.003Z,99.90
2018-09-11T13:52:12.554Z,99.90
2018-09-11T13:54:43.950Z,99.90
2018-09-11T13:57:15.306Z,99.90
2018-09-11T13:59:46.237Z,99.90
2018-09-11T14:02:17.754Z,99.90
2018-09-11T14:04:48.849Z,99.90
2018-09-11T14:07:20.346Z,99.90
2018-09-11T14:09:51.277Z,99.90
2018-09-11T14:12:22.857Z,99.90
2018-09-11T14:14:53.961Z,99.90
2018-09-11T14:17:25.403Z,99.90
2018-09-11T14:19:56.448Z,99.90
2018-09-11T14:22:28.186Z,99.90
2018-09-11T14:24:59.088Z,99.90
2018-09-11T14:27:30.466Z,99.90
2018-09-11T14:30:01.595Z,99.90
2018-09-11T14:32:33.405Z,99.90
2018-09-11T14:35:05.094Z,99.90
2018-09-11T14:37:36.497Z,99.90
2018-09-11T14:40:07.735Z,99.90
2018-09-11T14:42:47.970Z,99.90
2018-09-11T14:45:19.540Z,99.90
2018-09-11T14:47:52.269Z,99.90
2018-09-11T14:50:23.945Z,99.90
2018-09-11T14:52:55.686Z,99.90
2018-09-11T14:55:26.846Z,99.90
2018-09-11T14:57:58.617Z,99.90
2018-09-11T15:00:30.041Z,99.90
2018-09-11T15:03:01.757Z,99.90
2018-09-11T15:05:33.216Z,99.90
2018-09-11T15:08:06.215Z,99.90
2018-09-11T15:10:37.597Z,99.90
2018-09-11T15:13:09.286Z,99.90
2018-09-11T15:15:40.568Z,99.90
2018-09-11T15:18:12.323Z,99.90
2018-09-11T15:20:43.745Z,99.90
2018-09-11T15:23:15.349Z,99.90
2018-09-11T15:25:46.365Z,99.90
2018-09-11T15:28:17.778Z,99.90
2018-09-11T15:30:49.066Z,99.90
2018-09-11T15:33:20.401Z,99.90
2018-09-11T15:35:51.520Z,99.90
2018-09-11T15:38:23.071Z,99.90
2018-09-11T15:40:54.213Z,99.90
2018-09-11T15:43:25.707Z,99.90
2018-09-11T15:45:56.777Z,99.90
2018-09-11T15:48:29.110Z,99.90
2018-09-11T15:51:00.199Z,99.90
2018-09-11T15:53:36.828Z,99.90
2018-09-11T15:56:08.088Z,99.90
2018-09-11T15:58:39.573Z,99.90
2018-09-11T16:01:10.559Z,99.90
2018-09-11T16:03:41.956Z,99.90
2018-09-11T16:06:13.030Z,99.90
2018-09-11T16:08:44.242Z,99.90
2018-09-11T16:11:15.850Z,99.90
2018-09-11T16:13:47.313Z,99.90
2018-09-11T16:16:18.238Z,99.90
2018-09-11T16:18:49.467Z,99.90
2018-09-11T16:21:20.424Z,99.90
2018-09-11T16:23:51.807Z,99.90
2018-09-11T16:26:22.921Z,99.90
2018-09-11T16:28:54.711Z,99.90
2018-09-11T16:31:25.885Z,99.90
2018-09-11T16:33:57.410Z,99.90
2018-09-11T16:36:28.376Z,99.90
2018-09-11T16:38:59.831Z,99.90
2018-09-11T16:41:30.879Z,99.90
2018-09-11T16:44:02.358Z,99.90
2018-09-11T16:46:33.629Z,99.90
2018-09-11T16:49:05.431Z,99.90
2018-09-11T16:51:36.556Z,99.90
2018-09-11T16:54:08.413Z,99.90
2018-09-11T16:56:39.413Z,99.90
2018-09-11T16:59:10.703Z,99.90
2018-09-11T17:01:41.775Z,99.90
2018-09-11T17:04:13.317Z,99.90
2018-09-11T17:06:44.265Z,99.90
2018-09-11T17:09:15.530Z,99.90
2018-09-11T17:12:25.782Z,99.90
